createdAt,value
2019-02-19T00:03:03.405Z,9.87
2019-02-19T00:08:10.600Z,9.13
2019-02-19T00:10:39.230Z,9.00
2019-02-19T00:13:07.873Z,9.13
2019-02-19T00:15:36.496Z,9.53
2019-02-19T00:18:05.147Z,8.97
2019-02-19T00:20:33.785Z,9.00
2019-02-19T00:23:02.435Z,8.00
2019-02-19T00:25:31.332Z,8.73
2019-02-19T00:27:59.966Z,8.27
2019-02-19T00:33:07.433Z,8.53
2019-02-19T00:35:36.061Z,8.53
2019-02-19T00:38:06.356Z,8.13
2019-02-19T00:40:33.348Z,8.70
2019-02-19T00:43:02.000Z,7.90
2019-02-19T00:48:09.525Z,7.53
2019-02-19T00:50:38.144Z,7.33
2019-02-19T00:53:06.805Z,7.17
2019-02-19T00:55:35.742Z,7.17
2019-02-19T00:58:04.388Z,7.20
2019-02-19T01:00:33.315Z,6.20
2019-02-19T01:03:02.307Z,6.23
2019-02-19T01:08:09.518Z,6.50
2019-02-19T01:10:38.488Z,5.80
2019-02-19T01:13:07.485Z,6.03
2019-02-19T01:15:36.111Z,6.60
2019-02-19T01:18:05.049Z,6.13
2019-02-19T01:20:33.697Z,6.10
2019-02-19T01:23:02.352Z,5.90
2019-02-19T01:28:09.842Z,6.50
2019-02-19T01:30:38.821Z,6.50
2019-02-19T01:33:07.818Z,6.40
2019-02-19T01:35:36.875Z,6.20
2019-02-19T01:38:05.520Z,6.20
2019-02-19T01:40:34.511Z,5.97
2019-02-19T01:43:03.174Z,7.00
2019-02-19T01:48:10.373Z,6.20
2019-02-19T01:50:39.353Z,6.63
2019-02-19T01:53:08.000Z,6.07
2019-02-19T01:55:36.646Z,5.73
2019-02-19T01:58:05.603Z,5.17
2019-02-19T02:00:34.497Z,5.50
2019-02-19T02:03:03.490Z,5.57
2019-02-19T02:08:10.992Z,5.37
2019-02-19T02:10:39.976Z,4.90
2019-02-19T02:13:08.633Z,5.13
2019-02-19T02:15:42.763Z,5.10
2019-02-19T02:18:05.919Z,4.63
2019-02-19T02:20:34.944Z,5.30
2019-02-19T02:23:03.920Z,5.03
2019-02-19T02:28:11.430Z,4.43
2019-02-19T02:30:40.059Z,4.93
2019-02-19T02:33:08.713Z,4.70
2019-02-19T02:35:37.692Z,5.17
2019-02-19T02:38:06.523Z,4.70
2019-02-19T02:40:35.164Z,5.00
2019-02-19T02:43:03.805Z,4.47
2019-02-19T02:45:32.736Z,4.73
2019-02-19T02:48:01.721Z,4.73
2019-02-19T02:50:30.389Z,5.17
2019-02-19T02:52:59.013Z,5.40
2019-02-19T02:55:27.671Z,5.43
2019-02-19T02:57:56.305Z,4.70
2019-02-19T03:00:25.230Z,4.80
2019-02-19T03:02:53.872Z,4.90
2019-02-19T03:05:22.511Z,5.30
2019-02-19T03:07:51.495Z,5.10
2019-02-19T03:10:20.145Z,5.00
2019-02-19T03:12:49.069Z,4.60
2019-02-19T03:15:18.068Z,5.13
2019-02-19T03:17:46.713Z,4.57
2019-02-19T03:20:15.353Z,4.50
2019-02-19T03:22:44.001Z,4.87
2019-02-19T03:25:12.998Z,5.00
2019-02-19T03:27:41.631Z,4.80
2019-02-19T03:30:10.327Z,4.43
2019-02-19T03:32:38.933Z,4.47
2019-02-19T03:35:07.584Z,4.47
2019-02-19T03:37:36.530Z,4.10
2019-02-19T03:40:07.447Z,4.07
2019-02-19T03:42:33.813Z,4.30
2019-02-19T03:45:02.490Z,4.33
2019-02-19T03:47:31.105Z,4.57
2019-02-19T03:50:00.029Z,4.63
2019-02-19T03:52:28.946Z,4.10
2019-02-19T03:54:57.940Z,4.33
2019-02-19T03:57:26.575Z,4.33
2019-02-19T03:59:55.229Z,4.33
2019-02-19T04:02:23.863Z,4.40
2019-02-19T04:04:52.509Z,4.10
2019-02-19T04:07:21.145Z,4.20
2019-02-19T04:09:50.134Z,4.10
2019-02-19T04:12:18.776Z,3.97
2019-02-19T04:14:47.384Z,4.20
2019-02-19T04:17:16.031Z,4.07
2019-02-19T04:19:44.665Z,4.17
2019-02-19T04:22:13.313Z,4.37
2019-02-19T04:24:41.954Z,4.57
2019-02-19T04:27:10.589Z,4.60
2019-02-19T04:29:39.258Z,4.73
2019-02-19T04:32:07.893Z,4.27
2019-02-19T04:34:36.872Z,4.17
2019-02-19T04:37:05.520Z,4.67
2019-02-19T04:39:34.187Z,3.90
2019-02-19T04:42:02.808Z,3.93
2019-02-19T04:44:31.452Z,3.90
2019-02-19T04:47:00.454Z,4.30
2019-02-19T04:49:29.046Z,4.83
2019-02-19T04:51:57.970Z,4.07
2019-02-19T04:54:26.597Z,4.67
2019-02-19T04:56:55.249Z,4.40
2019-02-19T04:59:24.225Z,4.50
2019-02-19T05:01:52.881Z,4.20
2019-02-19T05:04:21.504Z,4.47
2019-02-19T05:06:50.484Z,4.70
2019-02-19T05:09:19.473Z,4.87
2019-02-19T05:11:48.113Z,4.90
2019-02-19T05:14:16.765Z,4.93
2019-02-19T05:16:45.410Z,5.40
2019-02-19T05:19:14.044Z,7.53
2019-02-19T05:21:42.698Z,5.70
2019-02-19T05:24:11.341Z,5.57
2019-02-19T05:26:39.988Z,5.07
2019-02-19T05:29:08.598Z,4.97
2019-02-19T05:31:37.235Z,4.83
2019-02-19T05:34:06.212Z,5.13
2019-02-19T05:36:34.859Z,4.20
2019-02-19T05:39:03.515Z,5.10
2019-02-19T05:41:32.160Z,4.13
2019-02-19T05:46:39.385Z,4.93
2019-02-19T05:49:08.352Z,5.57
2019-02-19T05:51:36.987Z,4.30
2019-02-19T05:54:05.621Z,4.30
2019-02-19T05:56:34.243Z,4.80
2019-02-19T05:59:03.189Z,4.53
2019-02-19T06:01:31.862Z,4.50
2019-02-19T06:06:39.070Z,4.40
2019-02-19T06:09:07.723Z,5.00
2019-02-19T06:11:36.773Z,5.33
2019-02-19T06:14:05.423Z,5.10
2019-02-19T06:16:34.210Z,4.90
2019-02-19T06:19:02.845Z,4.90
2019-02-19T06:21:31.506Z,5.67
2019-02-19T06:24:00.167Z,4.97
2019-02-19T06:26:29.018Z,5.50
2019-02-19T06:28:57.925Z,5.13
2019-02-19T06:31:26.309Z,5.67
2019-02-19T06:33:54.936Z,5.17
2019-02-19T06:36:23.558Z,5.27
2019-02-19T06:41:30.774Z,5.13
2019-02-19T06:43:59.446Z,4.93
2019-02-19T06:46:28.361Z,5.10
2019-02-19T06:48:57.103Z,5.47
2019-02-19T06:51:25.720Z,5.03
2019-02-19T06:53:54.637Z,5.17
2019-02-19T06:56:23.283Z,4.97
2019-02-19T07:01:30.473Z,4.77
2019-02-19T07:03:59.148Z,5.43
2019-02-19T07:06:27.769Z,5.30
2019-02-19T07:08:56.428Z,5.37
2019-02-19T07:11:25.329Z,5.37
2019-02-19T07:13:53.975Z,4.60
2019-02-19T07:16:22.611Z,5.00
2019-02-19T07:21:29.814Z,4.90
2019-02-19T07:24:04.365Z,4.87
2019-02-19T07:26:27.149Z,5.70
2019-02-19T07:28:55.798Z,5.20
2019-02-19T07:31:24.428Z,4.97
2019-02-19T07:36:31.637Z,6.07
2019-02-19T07:39:00.281Z,6.67
2019-02-19T07:41:28.917Z,6.03
2019-02-19T07:43:57.563Z,6.07
2019-02-19T07:46:26.211Z,6.80
2019-02-19T07:48:54.843Z,6.30
2019-02-19T07:51:23.495Z,6.30
2019-02-19T07:56:30.693Z,6.43
2019-02-19T07:58:59.344Z,6.57
2019-02-19T08:01:27.980Z,6.60
2019-02-19T08:03:56.610Z,7.37
2019-02-19T08:06:25.559Z,6.33
2019-02-19T08:08:54.223Z,6.30
2019-02-19T08:11:22.858Z,7.27
2019-02-19T08:16:30.093Z,6.60
2019-02-19T08:18:58.739Z,6.80
2019-02-19T08:21:27.374Z,7.33
2019-02-19T08:23:56.018Z,7.43
2019-02-19T08:26:24.976Z,6.73
2019-02-19T08:31:32.480Z,7.70
2019-02-19T08:34:01.145Z,7.07
2019-02-19T08:36:29.928Z,7.70
2019-02-19T08:38:58.475Z,7.40
2019-02-19T08:41:27.095Z,7.50
2019-02-19T08:43:55.998Z,7.23
2019-02-19T08:46:24.991Z,7.20
2019-02-19T08:48:53.625Z,7.30
2019-02-19T08:51:22.270Z,7.80
2019-02-19T08:56:29.847Z,7.40
2019-02-19T08:58:58.480Z,7.03
2019-02-19T09:01:27.125Z,7.60
2019-02-19T09:03:55.757Z,7.83
2019-02-19T09:06:24.403Z,7.77
2019-02-19T09:11:31.630Z,6.80
2019-02-19T09:14:00.265Z,7.30
2019-02-19T09:16:28.922Z,7.23
2019-02-19T09:18:57.846Z,7.73
2019-02-19T09:21:26.507Z,7.40
2019-02-19T09:23:55.160Z,8.03
2019-02-19T09:26:24.104Z,7.97
2019-02-19T09:31:31.319Z,7.63
2019-02-19T09:33:59.951Z,8.70
2019-02-19T09:36:28.980Z,8.07
2019-02-19T09:38:57.630Z,8.60
2019-02-19T09:41:26.331Z,9.50
2019-02-19T09:43:54.931Z,8.60
2019-02-19T09:46:23.917Z,8.20
2019-02-19T09:51:31.130Z,7.67
2019-02-19T09:53:59.773Z,8.40
2019-02-19T09:56:28.409Z,7.57
2019-02-19T09:58:57.381Z,7.70
2019-02-19T10:01:28.205Z,7.60
2019-02-19T10:03:55.008Z,7.70
2019-02-19T10:06:23.943Z,8.50
2019-02-19T10:11:31.509Z,8.63
2019-02-19T10:14:00.150Z,8.80
2019-02-19T10:16:28.790Z,9.47
2019-02-19T10:18:57.419Z,8.97
2019-02-19T10:21:26.075Z,9.37
2019-02-19T10:23:54.685Z,10.17
2019-02-19T10:26:23.331Z,9.67
2019-02-19T10:31:30.581Z,10.10
2019-02-19T10:33:59.204Z,8.93
2019-02-19T10:36:28.214Z,9.87
2019-02-19T10:38:56.863Z,9.27
2019-02-19T10:41:25.790Z,9.27
2019-02-19T10:43:54.674Z,10.23
2019-02-19T10:46:23.339Z,9.90
2019-02-19T10:51:30.552Z,10.27
2019-02-19T10:53:59.173Z,9.50
2019-02-19T10:56:28.134Z,8.77
2019-02-19T10:58:57.126Z,9.70
2019-02-19T11:01:25.781Z,8.63
2019-02-19T11:03:54.400Z,9.03
2019-02-19T11:06:23.061Z,9.57
2019-02-19T11:11:30.580Z,8.43
2019-02-19T11:13:59.201Z,8.63
2019-02-19T11:16:28.152Z,8.00
2019-02-19T11:18:56.786Z,8.53
2019-02-19T11:21:25.422Z,7.30
2019-02-19T11:23:54.411Z,7.63
2019-02-19T11:26:23.405Z,7.57
2019-02-19T11:28:52.079Z,7.73
2019-02-19T11:31:20.704Z,7.67
2019-02-19T11:36:28.275Z,7.60
2019-02-19T11:38:56.896Z,7.83
2019-02-19T11:41:25.527Z,7.63
2019-02-19T11:43:54.161Z,7.10
2019-02-19T11:46:23.130Z,8.57
2019-02-19T11:48:52.100Z,7.67
2019-02-19T11:51:20.765Z,6.73
2019-02-19T11:56:27.959Z,6.63
2019-02-19T11:58:56.602Z,7.03
2019-02-19T12:01:25.245Z,6.00
2019-02-19T12:03:53.884Z,6.53
2019-02-19T12:06:22.544Z,6.60
2019-02-19T12:11:29.776Z,6.10
2019-02-19T12:13:58.403Z,6.27
2019-02-19T12:16:27.059Z,6.50
2019-02-19T12:18:55.706Z,5.93
2019-02-19T12:21:24.685Z,5.57
2019-02-19T12:23:53.645Z,6.73
2019-02-19T12:26:22.296Z,5.70
2019-02-19T12:31:29.520Z,6.93
2019-02-19T12:33:58.155Z,6.07
2019-02-19T12:36:26.815Z,5.80
2019-02-19T12:38:55.461Z,5.17
2019-02-19T12:41:24.471Z,5.47
2019-02-19T12:46:31.671Z,5.90
2019-02-19T12:49:00.305Z,6.23
2019-02-19T12:51:28.949Z,6.00
2019-02-19T12:53:57.572Z,6.17
2019-02-19T12:56:26.507Z,6.70
2019-02-19T12:58:55.137Z,6.43
2019-02-19T13:01:23.866Z,6.17
2019-02-19T13:03:52.870Z,6.53
2019-02-19T13:06:21.861Z,6.30
2019-02-19T13:11:29.101Z,6.50
2019-02-19T13:13:57.736Z,6.63
2019-02-19T13:16:26.730Z,6.90
2019-02-19T13:19:03.193Z,7.33
2019-02-19T13:21:24.715Z,6.53
2019-02-19T13:26:32.288Z,6.17
2019-02-19T13:29:01.214Z,6.83
2019-02-19T13:31:30.029Z,6.50
2019-02-19T13:33:58.685Z,5.07
2019-02-19T13:36:27.342Z,5.50
2019-02-19T13:38:55.987Z,6.30
2019-02-19T13:41:24.636Z,6.10
2019-02-19T13:46:32.139Z,6.40
2019-02-19T13:49:00.775Z,6.27
2019-02-19T13:51:29.418Z,6.57
2019-02-19T13:53:58.406Z,5.87
2019-02-19T13:56:27.040Z,5.40
2019-02-19T14:01:43.881Z,5.27
2019-02-19T14:04:12.524Z,4.70
2019-02-19T14:06:41.478Z,5.07
2019-02-19T14:09:10.097Z,5.33
2019-02-19T14:11:38.755Z,4.80
2019-02-19T14:14:07.401Z,4.83
2019-02-19T14:16:36.316Z,4.50
2019-02-19T14:19:04.953Z,4.83
2019-02-19T14:21:33.585Z,4.10
2019-02-19T14:24:02.569Z,4.60
2019-02-19T14:26:31.224Z,4.50
2019-02-19T14:28:59.885Z,4.73
2019-02-19T14:31:28.509Z,5.23
2019-02-19T14:33:57.515Z,4.87
2019-02-19T14:36:46.870Z,4.57
2019-02-19T14:39:15.395Z,4.40
2019-02-19T14:41:44.036Z,5.30
2019-02-19T14:44:12.663Z,5.43
2019-02-19T14:46:41.310Z,5.50
2019-02-19T14:49:11.122Z,5.97
2019-02-19T14:51:39.773Z,5.87
2019-02-19T14:54:08.406Z,5.93
2019-02-19T14:56:37.052Z,5.43
2019-02-19T14:59:05.710Z,6.80
2019-02-19T15:01:34.658Z,6.00
2019-02-19T15:04:03.542Z,5.93
2019-02-19T15:06:32.520Z,6.00
2019-02-19T15:09:01.173Z,6.67
2019-02-19T15:11:29.785Z,6.33
2019-02-19T15:13:58.679Z,6.23
2019-02-19T15:16:27.565Z,6.73
2019-02-19T15:18:56.204Z,6.23
2019-02-19T15:21:25.600Z,6.93
2019-02-19T15:23:53.831Z,7.10
2019-02-19T15:26:22.717Z,6.77
2019-02-19T15:31:29.986Z,7.60
2019-02-19T15:33:58.623Z,6.07
2019-02-19T15:36:27.263Z,7.13
2019-02-19T15:38:55.917Z,6.93
2019-02-19T15:41:24.857Z,7.50
2019-02-19T15:46:32.045Z,6.57
2019-02-19T15:49:00.695Z,7.27
2019-02-19T15:51:29.384Z,6.87
2019-02-19T15:53:58.046Z,7.47
2019-02-19T15:56:26.692Z,7.30
2019-02-19T15:58:55.709Z,7.37
2019-02-19T16:01:24.678Z,7.27
2019-02-19T16:06:31.898Z,7.10
2019-02-19T16:09:00.556Z,7.37
2019-02-19T16:11:29.183Z,7.27
2019-02-19T16:13:57.832Z,7.40
2019-02-19T16:16:26.469Z,7.37
2019-02-19T16:18:55.124Z,7.37
2019-02-19T16:21:23.772Z,6.97
2019-02-19T16:26:31.317Z,7.27
2019-02-19T16:29:00.302Z,7.43
2019-02-19T16:31:29.256Z,7.83
2019-02-19T16:33:57.930Z,7.97
2019-02-19T16:36:26.934Z,7.00
2019-02-19T16:38:55.596Z,7.93
2019-02-19T16:41:24.242Z,8.60
2019-02-19T16:43:52.875Z,8.00
2019-02-19T16:46:21.506Z,7.57
2019-02-19T16:51:28.732Z,7.67
2019-02-19T16:53:57.441Z,7.27
2019-02-19T16:56:26.381Z,7.97
2019-02-19T16:58:55.033Z,7.87
2019-02-19T17:01:23.790Z,8.87
2019-02-19T17:03:52.694Z,8.43
2019-02-19T17:06:21.447Z,8.43
2019-02-19T17:08:50.359Z,7.47
2019-02-19T17:11:18.993Z,7.70
2019-02-19T17:13:47.793Z,7.77
2019-02-19T17:16:16.416Z,7.83
2019-02-19T17:18:45.078Z,7.80
2019-02-19T17:21:13.878Z,7.40
2019-02-19T17:23:43.851Z,7.33
2019-02-19T17:26:11.116Z,7.33
2019-02-19T17:28:39.769Z,7.47
2019-02-19T17:31:08.661Z,7.80
2019-02-19T17:33:37.332Z,7.53
2019-02-19T17:36:05.960Z,7.50
2019-02-19T17:38:34.636Z,7.33
2019-02-19T17:41:03.269Z,8.30
2019-02-19T17:43:31.914Z,7.33
2019-02-19T17:46:00.536Z,7.47
2019-02-19T17:48:29.181Z,7.50
2019-02-19T17:50:57.826Z,8.40
2019-02-19T17:53:26.719Z,7.57
2019-02-19T17:55:55.780Z,7.27
2019-02-19T17:58:24.530Z,7.57
2019-02-19T18:03:31.733Z,7.27
2019-02-19T18:06:00.654Z,7.40
2019-02-19T18:08:29.293Z,7.33
2019-02-19T18:10:57.925Z,7.63
2019-02-19T18:13:26.610Z,7.70
2019-02-19T18:15:57.536Z,6.93
2019-02-19T18:18:24.130Z,7.43
2019-02-19T18:20:52.762Z,7.50
2019-02-19T18:23:21.394Z,8.20
2019-02-19T18:25:50.079Z,8.07
2019-02-19T18:28:18.714Z,8.60
2019-02-19T18:30:47.355Z,7.50
2019-02-19T18:33:16.277Z,8.87
2019-02-19T18:35:44.924Z,6.77
2019-02-19T18:38:13.577Z,7.57
2019-02-19T18:40:42.232Z,7.80
2019-02-19T18:43:10.862Z,7.87
2019-02-19T18:45:39.511Z,7.77
2019-02-19T18:48:08.136Z,7.63
2019-02-19T18:50:36.771Z,8.57
2019-02-19T18:53:05.416Z,8.27
2019-02-19T18:55:34.065Z,8.10
2019-02-19T18:58:03.021Z,8.07
2019-02-19T19:00:31.665Z,8.90
2019-02-19T19:03:00.359Z,8.70
2019-02-19T19:05:29.301Z,8.77
2019-02-19T19:07:57.945Z,8.70
2019-02-19T19:10:26.701Z,8.53
2019-02-19T19:12:55.635Z,8.43
2019-02-19T19:15:24.406Z,8.43
2019-02-19T19:17:53.024Z,8.87
2019-02-19T19:20:21.664Z,8.20
2019-02-19T19:22:50.291Z,8.63
2019-02-19T19:25:18.953Z,9.13
2019-02-19T19:27:47.585Z,9.50
2019-02-19T19:30:16.530Z,9.63
2019-02-19T19:32:45.168Z,9.40
2019-02-19T19:35:13.822Z,9.30
2019-02-19T19:37:42.782Z,9.30
2019-02-19T19:40:11.454Z,10.50
2019-02-19T19:42:40.349Z,10.10
2019-02-19T19:45:09.006Z,9.93
2019-02-19T19:47:37.926Z,10.27
2019-02-19T19:50:06.590Z,10.70
2019-02-19T19:52:35.204Z,10.87
2019-02-19T19:55:04.204Z,10.27
2019-02-19T19:57:32.857Z,10.03
2019-02-19T20:00:01.473Z,11.33
2019-02-19T20:02:30.083Z,10.63
2019-02-19T20:04:59.026Z,12.13
2019-02-19T20:07:28.018Z,12.47
2019-02-19T20:09:57.009Z,11.43
2019-02-19T20:12:25.656Z,10.97
2019-02-19T20:14:54.343Z,10.50
2019-02-19T20:17:22.958Z,10.73
2019-02-19T20:19:51.947Z,11.27
2019-02-19T20:22:20.940Z,11.13
2019-02-19T20:24:49.586Z,10.80
2019-02-19T20:27:18.513Z,10.40
2019-02-19T20:29:47.144Z,10.80
2019-02-19T20:32:15.764Z,10.40
2019-02-19T20:34:44.771Z,10.47
2019-02-19T20:37:13.490Z,10.23
2019-02-19T20:39:42.116Z,10.57
2019-02-19T20:42:10.749Z,10.30
2019-02-19T20:44:39.719Z,10.57
2019-02-19T20:47:08.333Z,9.77
2019-02-19T20:49:36.962Z,10.17
2019-02-19T20:52:06.082Z,10.03
2019-02-19T20:54:35.059Z,10.00
2019-02-19T20:57:04.051Z,10.40
2019-02-19T20:59:33.037Z,10.20
2019-02-19T21:02:01.773Z,10.57
2019-02-19T21:04:30.422Z,10.60
2019-02-19T21:06:59.083Z,10.23
2019-02-19T21:09:28.086Z,11.03
2019-02-19T21:11:57.106Z,10.47
2019-02-19T21:14:26.069Z,10.10
2019-02-19T21:16:54.738Z,9.83
2019-02-19T21:19:23.345Z,9.23
2019-02-19T21:21:52.066Z,9.73
2019-02-19T21:24:20.667Z,9.40
2019-02-19T21:26:49.295Z,9.63
2019-02-19T21:29:17.931Z,9.37
2019-02-19T21:31:46.848Z,8.63
2019-02-19T21:34:15.475Z,9.50
2019-02-19T21:36:44.118Z,9.23
2019-02-19T21:39:13.038Z,9.73
2019-02-19T21:41:41.682Z,9.77
2019-02-19T21:44:10.615Z,8.80
2019-02-19T21:46:41.151Z,8.67
2019-02-19T21:49:07.885Z,9.37
2019-02-19T21:51:36.529Z,9.10
2019-02-19T21:54:05.154Z,8.63
2019-02-19T21:56:33.798Z,8.83
2019-02-19T21:59:02.423Z,9.40
2019-02-19T22:01:31.376Z,7.97
2019-02-19T22:04:00.005Z,8.47
2019-02-19T22:06:28.640Z,8.50
2019-02-19T22:08:57.274Z,8.70
2019-02-19T22:11:25.948Z,9.30
2019-02-19T22:13:54.509Z,9.27
2019-02-19T22:16:23.481Z,9.47
2019-02-19T22:21:30.981Z,8.33
2019-02-19T22:23:59.972Z,8.50
2019-02-19T22:26:28.620Z,8.63
2019-02-19T22:28:57.257Z,8.50
2019-02-19T22:31:26.224Z,8.80
2019-02-19T22:33:55.111Z,7.67
2019-02-19T22:36:23.756Z,8.37
2019-02-19T22:38:52.417Z,8.10
2019-02-19T22:41:21.070Z,8.43
2019-02-19T22:46:28.511Z,8.17
2019-02-19T22:48:57.133Z,7.30
2019-02-19T22:51:25.800Z,7.93
2019-02-19T22:53:54.428Z,8.50
2019-02-19T22:56:23.070Z,8.80
2019-02-19T23:01:30.272Z,8.27
2019-02-19T23:03:58.913Z,8.53
2019-02-19T23:06:27.566Z,8.27
2019-02-19T23:08:56.203Z,8.93
2019-02-19T23:11:24.847Z,8.80
2019-02-19T23:16:32.042Z,8.20
2019-02-19T23:19:00.664Z,8.17
2019-02-19T23:21:29.309Z,7.33
2019-02-19T23:23:57.946Z,8.47
2019-02-19T23:26:26.577Z,7.53
2019-02-19T23:28:55.197Z,8.30
2019-02-19T23:31:23.879Z,8.57
2019-02-19T23:36:31.417Z,7.30
2019-02-19T23:39:00.061Z,7.57
2019-02-19T23:41:28.710Z,7.50
2019-02-19T23:43:57.349Z,7.90
2019-02-19T23:46:25.986Z,8.53
2019-02-19T23:48:54.615Z,8.43
2019-02-19T23:51:23.540Z,8.07
2019-02-19T23:53:52.171Z,8.07
2019-02-19T23:56:20.827Z,8.57
